createdAt,value
2023-05-05T00:00:50.441Z,94778.00
2023-05-05T00:01:50.514Z,94776.00
2023-05-05T00:02:50.557Z,94776.00
2023-05-05T00:03:50.707Z,94774.00
2023-05-05T00:04:50.648Z,94774.00
2023-05-05T00:05:50.650Z,94774.00
2023-05-05T00:06:50.661Z,94774.00
2023-05-05T00:07:50.684Z,94774.00
2023-05-05T00:08:50.719Z,94774.00
2023-05-05T00:09:50.773Z,94772.00
2023-05-05T00:10:50.774Z,94772.00
2023-05-05T00:11:50.808Z,94772.00
2023-05-05T00:12:50.877Z,94770.00
2023-05-05T00:13:50.896Z,94772.00
2023-05-05T00:14:50.931Z,94772.00
2023-05-05T00:15:51.006Z,94770.00
2023-05-05T00:16:51.056Z,94774.00
2023-05-05T00:17:51.106Z,94772.00
2023-05-05T00:18:51.101Z,94772.00
2023-05-05T00:19:51.161Z,94774.00
2023-05-05T00:20:51.197Z,94774.00
2023-05-05T00:21:51.208Z,94776.00
2023-05-05T00:22:51.255Z,94774.00
2023-05-05T00:23:51.281Z,94774.00
2023-05-05T00:24:51.315Z,94774.00
2023-05-05T00:25:51.346Z,94776.00
2023-05-05T00:26:51.398Z,94776.00
2023-05-05T00:27:51.413Z,94778.00
2023-05-05T00:28:51.460Z,94776.00
2023-05-05T00:29:51.522Z,94776.00
2023-05-05T00:30:51.594Z,94774.00
2023-05-05T00:31:51.564Z,94774.00
2023-05-05T00:32:51.634Z,94776.00
2023-05-05T00:33:51.658Z,94776.00
2023-05-05T00:34:51.817Z,94776.00
2023-05-05T00:35:51.974Z,94776.00
2023-05-05T00:36:52.114Z,94778.00
2023-05-05T00:37:52.253Z,94778.00
2023-05-05T00:38:52.384Z,94782.00
2023-05-05T00:39:52.529Z,94784.00
2023-05-05T00:40:52.537Z,94784.00
2023-05-05T00:41:52.619Z,94784.00
2023-05-05T00:42:52.638Z,94786.00
2023-05-05T00:43:52.624Z,94786.00
2023-05-05T00:44:52.603Z,94780.00
2023-05-05T00:45:52.592Z,94784.00
2023-05-05T00:46:52.669Z,94782.00
2023-05-05T00:47:52.762Z,94784.00
2023-05-05T00:48:52.614Z,94786.00
2023-05-05T00:49:52.573Z,94784.00
2023-05-05T00:50:52.564Z,94782.00
2023-05-05T00:51:52.572Z,94780.00
2023-05-05T00:52:52.551Z,94780.00
2023-05-05T00:53:52.591Z,94778.00
2023-05-05T00:54:52.580Z,94778.00
2023-05-05T00:55:52.560Z,94776.00
2023-05-05T00:56:52.570Z,94778.00
2023-05-05T00:57:52.598Z,94774.00
2023-05-05T00:58:52.541Z,94774.00
2023-05-05T00:59:52.539Z,94772.00
2023-05-05T01:00:52.547Z,94774.00
2023-05-05T01:01:52.562Z,94774.00
2023-05-05T01:02:52.729Z,94772.00
2023-05-05T01:03:52.599Z,94774.00
2023-05-05T01:04:52.504Z,94774.00
2023-05-05T01:05:52.498Z,94774.00
2023-05-05T01:06:52.497Z,94772.00
2023-05-05T01:07:52.488Z,94772.00
2023-05-05T01:08:52.489Z,94776.00
2023-05-05T01:10:15.239Z,94774.00
2023-05-05T01:10:53.484Z,94772.00
2023-05-05T01:11:52.483Z,94774.00
2023-05-05T01:12:52.956Z,94772.00
2023-05-05T01:13:52.463Z,94774.00
2023-05-05T01:14:52.437Z,94774.00
2023-05-05T01:15:52.480Z,94774.00
2023-05-05T01:16:52.440Z,94770.00
2023-05-05T01:17:52.483Z,94770.00
2023-05-05T01:18:52.440Z,94776.00
2023-05-05T01:19:52.418Z,94772.00
2023-05-05T01:20:52.411Z,94776.00
2023-05-05T01:21:52.407Z,94778.00
2023-05-05T01:22:52.413Z,94780.00
2023-05-05T01:23:52.376Z,94780.00
2023-05-05T01:24:52.401Z,94780.00
2023-05-05T01:25:52.439Z,94778.00
2023-05-05T01:26:52.440Z,94780.00
2023-05-05T01:27:52.487Z,94778.00
2023-05-05T01:28:52.488Z,94778.00
2023-05-05T01:29:52.539Z,94776.00
2023-05-05T01:30:52.544Z,94776.00
2023-05-05T01:31:52.603Z,94780.00
2023-05-05T01:32:52.633Z,94778.00
2023-05-05T01:33:52.607Z,94780.00
2023-05-05T01:34:52.625Z,94780.00
2023-05-05T01:35:52.651Z,94780.00
2023-05-05T01:36:52.660Z,94780.00
2023-05-05T01:37:52.672Z,94778.00
2023-05-05T01:38:52.673Z,94778.00
2023-05-05T01:39:52.711Z,94778.00
2023-05-05T01:40:52.739Z,94776.00
2023-05-05T01:41:52.728Z,94776.00
2023-05-05T01:42:52.781Z,94774.00
2023-05-05T01:43:52.792Z,94774.00
2023-05-05T01:44:52.829Z,94774.00
2023-05-05T01:45:52.877Z,94774.00
2023-05-05T01:46:52.839Z,94774.00
2023-05-05T01:47:52.948Z,94776.00
2023-05-05T01:48:52.860Z,94778.00
2023-05-05T01:49:52.871Z,94780.00
2023-05-05T01:50:52.882Z,94778.00
2023-05-05T01:51:52.894Z,94780.00
2023-05-05T01:52:52.920Z,94780.00
2023-05-05T01:53:52.947Z,94780.00
2023-05-05T01:54:52.965Z,94782.00
2023-05-05T01:55:53.007Z,94782.00
2023-05-05T01:56:53.088Z,94782.00
2023-05-05T01:57:53.086Z,94782.00
2023-05-05T01:58:53.141Z,94782.00
2023-05-05T01:59:53.255Z,94786.00
2023-05-05T02:00:53.185Z,94784.00
2023-05-05T02:01:53.235Z,94788.00
2023-05-05T02:02:53.383Z,94788.00
2023-05-05T02:03:53.292Z,94788.00
2023-05-05T02:04:53.291Z,94788.00
2023-05-05T02:05:53.331Z,94788.00
2023-05-05T02:06:53.428Z,94786.00
2023-05-05T02:07:53.364Z,94786.00
2023-05-05T02:08:53.399Z,94788.00
2023-05-05T02:09:53.423Z,94790.00
2023-05-05T02:10:53.434Z,94791.00
2023-05-05T02:11:53.468Z,94791.00
2023-05-05T02:12:53.478Z,94793.00
2023-05-05T02:13:53.539Z,94793.00
2023-05-05T02:14:53.553Z,94791.00
2023-05-05T02:15:53.574Z,94797.00
2023-05-05T02:16:53.592Z,94793.00
2023-05-05T02:17:53.626Z,94795.00
2023-05-05T02:18:53.650Z,94799.00
2023-05-05T02:19:53.676Z,94801.00
2023-05-05T02:20:53.726Z,94797.00
2023-05-05T02:21:53.772Z,94803.00
2023-05-05T02:22:53.827Z,94801.00
2023-05-05T02:23:53.820Z,94801.00
2023-05-05T02:24:53.856Z,94803.00
2023-05-05T02:25:53.869Z,94803.00
2023-05-05T02:26:53.920Z,94801.00
2023-05-05T02:27:53.960Z,94801.00
2023-05-05T02:28:53.970Z,94803.00
2023-05-05T02:29:54.014Z,94805.00
2023-05-05T02:30:54.072Z,94805.00
2023-05-05T02:31:54.212Z,94805.00
2023-05-05T02:32:54.206Z,94807.00
2023-05-05T02:33:54.180Z,94805.00
2023-05-05T02:34:54.214Z,94805.00
2023-05-05T02:35:54.238Z,94803.00
2023-05-05T02:36:54.247Z,94803.00
2023-05-05T02:37:54.276Z,94803.00
2023-05-05T02:38:54.301Z,94801.00
2023-05-05T02:39:54.318Z,94801.00
2023-05-05T02:40:54.350Z,94801.00
2023-05-05T02:41:54.400Z,94803.00
2023-05-05T02:42:54.477Z,94803.00
2023-05-05T02:43:54.449Z,94803.00
2023-05-05T02:44:54.502Z,94803.00
2023-05-05T02:45:54.517Z,94805.00
2023-05-05T02:46:54.709Z,94805.00
2023-05-05T02:47:54.742Z,94807.00
2023-05-05T02:48:54.831Z,94807.00
2023-05-05T02:49:54.970Z,94809.00
2023-05-05T02:50:55.128Z,94805.00
2023-05-05T02:51:55.388Z,94805.00
2023-05-05T02:52:55.524Z,94805.00
2023-05-05T02:53:55.790Z,94803.00
2023-05-05T02:54:55.971Z,94803.00
2023-05-05T02:55:56.149Z,94805.00
2023-05-05T02:56:56.194Z,94805.00
2023-05-05T02:57:56.182Z,94807.00
2023-05-05T02:58:56.388Z,94807.00
2023-05-05T02:59:56.274Z,94805.00
2023-05-05T03:00:56.332Z,94805.00
2023-05-05T03:01:56.368Z,94803.00
2023-05-05T03:02:56.289Z,94803.00
2023-05-05T03:03:56.385Z,94803.00
2023-05-05T03:04:56.230Z,94803.00
2023-05-05T03:05:56.220Z,94803.00
2023-05-05T03:06:56.209Z,94801.00
2023-05-05T03:07:56.257Z,94801.00
2023-05-05T03:08:56.192Z,94799.00
2023-05-05T03:09:56.219Z,94801.00
2023-05-05T03:10:56.190Z,94801.00
2023-05-05T03:11:56.183Z,94801.00
2023-05-05T03:12:56.220Z,94801.00
2023-05-05T03:13:56.179Z,94803.00
2023-05-05T03:14:56.166Z,94803.00
2023-05-05T03:15:56.212Z,94803.00
2023-05-05T03:16:56.138Z,94805.00
2023-05-05T03:17:56.208Z,94809.00
2023-05-05T03:18:56.117Z,94809.00
2023-05-05T03:19:56.105Z,94811.00
2023-05-05T03:20:56.125Z,94811.00
2023-05-05T03:21:56.116Z,94813.00
2023-05-05T03:22:56.105Z,94815.00
2023-05-05T03:23:56.094Z,94809.00
2023-05-05T03:24:56.078Z,94811.00
2023-05-05T03:25:56.066Z,94811.00
2023-05-05T03:26:56.060Z,94811.00
2023-05-05T03:27:56.043Z,94811.00
2023-05-05T03:28:56.040Z,94811.00
2023-05-05T03:29:56.030Z,94811.00
2023-05-05T03:30:56.038Z,94809.00
2023-05-05T03:31:56.082Z,94809.00
2023-05-05T03:32:56.112Z,94811.00
2023-05-05T03:33:56.002Z,94811.00
2023-05-05T03:34:55.996Z,94809.00
2023-05-05T03:35:55.996Z,94811.00
2023-05-05T03:36:55.989Z,94809.00
2023-05-05T03:37:56.007Z,94809.00
2023-05-05T03:38:55.980Z,94807.00
2023-05-05T03:39:55.958Z,94809.00
2023-05-05T03:40:56.001Z,94811.00
2023-05-05T03:41:56.041Z,94811.00
2023-05-05T03:42:56.088Z,94809.00
2023-05-05T03:43:56.138Z,94815.00
2023-05-05T03:44:56.192Z,94811.00
2023-05-05T03:45:56.321Z,94811.00
2023-05-05T03:46:56.297Z,94811.00
2023-05-05T03:47:56.379Z,94811.00
2023-05-05T03:48:56.416Z,94811.00
2023-05-05T03:49:56.480Z,94815.00
2023-05-05T03:50:56.548Z,94813.00
2023-05-05T03:51:56.588Z,94813.00
2023-05-05T03:52:56.636Z,94815.00
2023-05-05T03:53:56.779Z,94815.00
2023-05-05T03:54:56.799Z,94817.00
2023-05-05T03:55:56.852Z,94813.00
2023-05-05T03:56:56.898Z,94811.00
2023-05-05T03:57:56.961Z,94811.00
2023-05-05T03:58:56.994Z,94809.00
2023-05-05T03:59:57.064Z,94807.00
2023-05-05T04:00:57.116Z,94799.00
2023-05-05T04:01:57.182Z,94797.00
2023-05-05T04:02:57.330Z,94797.00
2023-05-05T04:03:57.340Z,94797.00
2023-05-05T04:04:57.347Z,94793.00
2023-05-05T04:05:57.411Z,94795.00
2023-05-05T04:06:57.459Z,94795.00
2023-05-05T04:07:57.510Z,94797.00
2023-05-05T04:08:57.578Z,94801.00
2023-05-05T04:09:57.613Z,94799.00
2023-05-05T04:10:57.662Z,94799.00
2023-05-05T04:11:57.740Z,94797.00
2023-05-05T04:12:57.800Z,94797.00
2023-05-05T04:13:57.843Z,94795.00
2023-05-05T04:14:57.896Z,94795.00
2023-05-05T04:15:57.995Z,94797.00
2023-05-05T04:16:57.988Z,94799.00
2023-05-05T04:17:58.103Z,94799.00
2023-05-05T04:18:58.063Z,94801.00
2023-05-05T04:19:58.125Z,94797.00
2023-05-05T04:20:58.191Z,94799.00
2023-05-05T04:21:58.228Z,94801.00
2023-05-05T04:22:58.298Z,94801.00
2023-05-05T04:23:58.353Z,94803.00
2023-05-05T04:24:58.410Z,94803.00
2023-05-05T04:25:58.483Z,94803.00
2023-05-05T04:26:58.508Z,94805.00
2023-05-05T04:27:58.558Z,94805.00
2023-05-05T04:28:58.620Z,94805.00
2023-05-05T04:29:58.669Z,94805.00
2023-05-05T04:30:58.769Z,94805.00
2023-05-05T04:31:58.767Z,94805.00
2023-05-05T04:32:58.883Z,94807.00
2023-05-05T04:33:58.937Z,94809.00
2023-05-05T04:34:58.971Z,94805.00
2023-05-05T04:35:59.033Z,94805.00
2023-05-05T04:36:59.085Z,94805.00
2023-05-05T04:37:59.185Z,94807.00
2023-05-05T04:38:59.231Z,94805.00
2023-05-05T04:39:59.477Z,94807.00
2023-05-05T04:40:59.431Z,94811.00
2023-05-05T04:41:59.419Z,94813.00
2023-05-05T04:42:59.468Z,94813.00
2023-05-05T04:43:59.538Z,94815.00
2023-05-05T04:44:59.595Z,94813.00
2023-05-05T04:45:59.670Z,94815.00
2023-05-05T04:46:59.712Z,94815.00
2023-05-05T04:47:59.883Z,94817.00
2023-05-05T04:48:59.830Z,94817.00
2023-05-05T04:49:59.877Z,94821.00
2023-05-05T04:50:59.932Z,94815.00
2023-05-05T04:52:00.027Z,94821.00
2023-05-05T04:53:00.084Z,94809.00
2023-05-05T04:54:00.152Z,94817.00
2023-05-05T04:55:00.242Z,94809.00
2023-05-05T04:56:00.253Z,94821.00
2023-05-05T04:57:00.308Z,94823.00
2023-05-05T04:58:00.359Z,94823.00
2023-05-05T04:59:00.471Z,94825.00
2023-05-05T05:00:00.490Z,94825.00
2023-05-05T05:01:00.563Z,94830.00
2023-05-05T05:02:00.631Z,94830.00
2023-05-05T05:03:00.757Z,94830.00
2023-05-05T05:04:00.701Z,94830.00
2023-05-05T05:05:00.752Z,94830.00
2023-05-05T05:06:00.812Z,94829.00
2023-05-05T05:07:00.877Z,94829.00
2023-05-05T05:08:00.850Z,94829.00
2023-05-05T05:09:00.941Z,94829.00
2023-05-05T05:10:00.941Z,94827.00
2023-05-05T05:11:01.014Z,94827.00
2023-05-05T05:12:01.051Z,94832.00
2023-05-05T05:13:01.124Z,94832.00
2023-05-05T05:14:01.125Z,94832.00
2023-05-05T05:15:01.161Z,94835.00
2023-05-05T05:16:01.220Z,94837.00
2023-05-05T05:17:01.232Z,94840.00
2023-05-05T05:18:01.329Z,94838.00
2023-05-05T05:19:01.933Z,94842.00
2023-05-05T05:20:01.310Z,94844.00
2023-05-05T05:21:01.348Z,94848.00
2023-05-05T05:22:01.369Z,94846.00
2023-05-05T05:23:01.470Z,94848.00
2023-05-05T05:24:01.440Z,94850.00
2023-05-05T05:25:01.463Z,94850.00
2023-05-05T05:26:01.578Z,94848.00
2023-05-05T05:27:01.546Z,94850.00
2023-05-05T05:28:10.324Z,94850.00
2023-05-05T05:29:02.966Z,94848.00
2023-05-05T05:30:01.594Z,94844.00
2023-05-05T05:31:01.626Z,94848.00
2023-05-05T05:32:01.598Z,94848.00
2023-05-05T05:33:01.889Z,94846.00
2023-05-05T05:34:01.584Z,94846.00
2023-05-05T05:35:01.526Z,94846.00
2023-05-05T05:36:01.522Z,94846.00
2023-05-05T05:37:01.510Z,94844.00
2023-05-05T05:38:01.530Z,94842.00
2023-05-05T05:39:01.504Z,94842.00
2023-05-05T05:40:01.509Z,94844.00
2023-05-05T05:41:01.512Z,94844.00
2023-05-05T05:42:01.494Z,94844.00
2023-05-05T05:43:01.508Z,94844.00
2023-05-05T05:44:01.480Z,94844.00
2023-05-05T05:45:01.572Z,94842.00
2023-05-05T05:46:01.539Z,94848.00
2023-05-05T05:47:01.472Z,94846.00
2023-05-05T05:48:01.531Z,94846.00
2023-05-05T05:49:01.509Z,94846.00
2023-05-05T05:50:01.598Z,94848.00
2023-05-05T05:51:01.588Z,94858.00
2023-05-05T05:52:01.603Z,94854.00
2023-05-05T05:53:01.602Z,94858.00
2023-05-05T05:54:01.620Z,94856.00
2023-05-05T05:55:01.624Z,94858.00
2023-05-05T05:56:01.596Z,94858.00
2023-05-05T05:57:01.650Z,94860.00
2023-05-05T05:58:01.671Z,94858.00
2023-05-05T05:59:01.704Z,94858.00
2023-05-05T06:00:02.306Z,94862.00
2023-05-05T06:01:01.799Z,94864.00
2023-05-05T06:02:01.940Z,94864.00
2023-05-05T06:03:01.880Z,94862.00
2023-05-05T06:04:01.894Z,94860.00
2023-05-05T06:05:01.859Z,94862.00
2023-05-05T06:06:01.875Z,94860.00
2023-05-05T06:07:01.915Z,94858.00
2023-05-05T06:08:01.944Z,94856.00
2023-05-05T06:09:01.943Z,94858.00
2023-05-05T06:10:14.425Z,94858.00
2023-05-05T06:11:02.982Z,94858.00
2023-05-05T06:12:01.966Z,94858.00
2023-05-05T06:13:02.014Z,94858.00
2023-05-05T06:14:01.974Z,94856.00
2023-05-05T06:15:01.944Z,94854.00
2023-05-05T06:16:02.003Z,94856.00
2023-05-05T06:17:01.925Z,94854.00
2023-05-05T06:18:02.005Z,94854.00
2023-05-05T06:19:02.067Z,94852.00
2023-05-05T06:20:01.900Z,94854.00
2023-05-05T06:21:01.931Z,94854.00
2023-05-05T06:22:01.988Z,94852.00
2023-05-05T06:23:02.043Z,94848.00
2023-05-05T06:24:02.061Z,94850.00
2023-05-05T06:25:02.070Z,94846.00
2023-05-05T06:26:02.136Z,94840.00
2023-05-05T06:27:02.123Z,94835.00
2023-05-05T06:28:02.187Z,94840.00
2023-05-05T06:29:02.194Z,94837.00
2023-05-05T06:30:02.247Z,94837.00
2023-05-05T06:31:02.335Z,94835.00
2023-05-05T06:32:02.643Z,94830.00
2023-05-05T06:33:02.464Z,94830.00
2023-05-05T06:34:02.472Z,94830.00
2023-05-05T06:35:02.517Z,94830.00
2023-05-05T06:36:02.573Z,94830.00
2023-05-05T06:37:02.613Z,94835.00
2023-05-05T06:38:02.639Z,94827.00
2023-05-05T06:39:02.701Z,94830.00
2023-05-05T06:40:02.754Z,94829.00
2023-05-05T06:41:02.769Z,94829.00
2023-05-05T06:42:02.774Z,94829.00
2023-05-05T06:43:02.818Z,94825.00
2023-05-05T06:44:03.107Z,94827.00
2023-05-05T06:45:02.886Z,94825.00
2023-05-05T06:46:02.906Z,94827.00
2023-05-05T06:47:03.156Z,94823.00
2023-05-05T06:48:03.689Z,94823.00
2023-05-05T06:49:02.965Z,94819.00
2023-05-05T06:50:02.992Z,94817.00
2023-05-05T06:51:03.097Z,94819.00
2023-05-05T06:52:03.057Z,94821.00
2023-05-05T06:53:03.050Z,94815.00
2023-05-05T06:54:03.098Z,94817.00
2023-05-05T06:55:03.066Z,94815.00
2023-05-05T06:56:03.071Z,94815.00
2023-05-05T06:57:03.087Z,94813.00
2023-05-05T06:58:03.090Z,94817.00
2023-05-05T06:59:03.126Z,94813.00
2023-05-05T07:00:03.140Z,94811.00
2023-05-05T07:01:03.191Z,94809.00
2023-05-05T07:02:03.141Z,94807.00
2023-05-05T07:03:03.165Z,94807.00
2023-05-05T07:04:03.220Z,94809.00
2023-05-05T07:05:03.143Z,94807.00
2023-05-05T07:06:03.167Z,94805.00
2023-05-05T07:07:03.208Z,94805.00
2023-05-05T07:08:03.207Z,94803.00
2023-05-05T07:09:03.606Z,94801.00
2023-05-05T07:10:03.234Z,94805.00
2023-05-05T07:11:03.247Z,94805.00
2023-05-05T07:12:03.595Z,94807.00
2023-05-05T07:13:03.289Z,94803.00
2023-05-05T07:14:03.286Z,94805.00
2023-05-05T07:15:15.458Z,94805.00
2023-05-05T07:16:04.347Z,94805.00
2023-05-05T07:17:03.289Z,94801.00
2023-05-05T07:18:03.336Z,94799.00
2023-05-05T07:19:03.257Z,94799.00
2023-05-05T07:20:03.327Z,94797.00
2023-05-05T07:21:03.277Z,94797.00
2023-05-05T07:22:03.246Z,94793.00
2023-05-05T07:23:03.235Z,94797.00
2023-05-05T07:24:03.292Z,94793.00
2023-05-05T07:25:03.250Z,94793.00
2023-05-05T07:26:03.225Z,94791.00
2023-05-05T07:27:03.216Z,94790.00
2023-05-05T07:28:03.215Z,94790.00
2023-05-05T07:29:03.187Z,94786.00
2023-05-05T07:30:05.505Z,94786.00
2023-05-05T07:31:03.179Z,94784.00
2023-05-05T07:32:03.720Z,94782.00
2023-05-05T07:33:03.239Z,94784.00
2023-05-05T07:34:03.191Z,94782.00
2023-05-05T07:35:03.155Z,94782.00
2023-05-05T07:36:03.283Z,94780.00
2023-05-05T07:37:03.616Z,94782.00
2023-05-05T07:38:03.138Z,94786.00
2023-05-05T07:39:03.138Z,94782.00
2023-05-05T07:40:03.128Z,94782.00
2023-05-05T07:41:03.110Z,94778.00
2023-05-05T07:42:03.137Z,94780.00
2023-05-05T07:43:03.142Z,94778.00
2023-05-05T07:44:03.099Z,94778.00
2023-05-05T07:45:03.094Z,94774.00
2023-05-05T07:46:03.260Z,94774.00
2023-05-05T07:47:03.153Z,94772.00
2023-05-05T07:48:03.340Z,94770.00
2023-05-05T07:49:03.623Z,94766.00
2023-05-05T07:50:03.620Z,94768.00
2023-05-05T07:51:03.686Z,94764.00
2023-05-05T07:52:03.793Z,94764.00
2023-05-05T07:53:13.809Z,94764.00
2023-05-05T07:54:05.113Z,94760.00
2023-05-05T07:55:03.775Z,94760.00
2023-05-05T07:56:03.832Z,94758.00
2023-05-05T07:57:03.783Z,94756.00
2023-05-05T07:58:03.795Z,94756.00
2023-05-05T07:59:04.099Z,94754.00
2023-05-05T08:00:03.746Z,94758.00
2023-05-05T08:01:03.737Z,94754.00
2023-05-05T08:02:04.122Z,94754.00
2023-05-05T08:03:06.294Z,94752.00
2023-05-05T08:04:03.912Z,94756.00
2023-05-05T08:05:03.803Z,94754.00
2023-05-05T08:06:03.781Z,94754.00
2023-05-05T08:07:03.781Z,94752.00
2023-05-05T08:08:03.856Z,94750.00
2023-05-05T08:09:03.773Z,94750.00
2023-05-05T08:10:03.833Z,94748.00
2023-05-05T08:11:03.746Z,94748.00
2023-05-05T08:12:03.759Z,94744.00
2023-05-05T08:13:03.757Z,94741.00
2023-05-05T08:14:03.761Z,94741.00
2023-05-05T08:15:03.739Z,94739.00
2023-05-05T08:16:03.723Z,94737.00
2023-05-05T08:17:03.737Z,94735.00
2023-05-05T08:18:03.742Z,94737.00
2023-05-05T08:19:06.225Z,94735.00
2023-05-05T08:20:04.687Z,94733.00
2023-05-05T08:21:03.675Z,94729.00
2023-05-05T08:22:03.697Z,94727.00
2023-05-05T08:23:03.700Z,94725.00
2023-05-05T08:24:04.237Z,94725.00
2023-05-05T08:25:03.652Z,94719.00
2023-05-05T08:26:03.661Z,94717.00
2023-05-05T08:27:03.672Z,94717.00
2023-05-05T08:28:03.700Z,94719.00
2023-05-05T08:29:03.781Z,94713.00
2023-05-05T08:30:03.695Z,94717.00
2023-05-05T08:31:03.726Z,94711.00
2023-05-05T08:32:03.695Z,94709.00
2023-05-05T08:33:03.755Z,94709.00
2023-05-05T08:34:03.749Z,94709.00
2023-05-05T08:35:03.748Z,94707.00
2023-05-05T08:36:03.814Z,94705.00
2023-05-05T08:37:04.008Z,94705.00
2023-05-05T08:38:03.868Z,94701.00
2023-05-05T08:39:03.914Z,94701.00
2023-05-05T08:40:04.016Z,94701.00
2023-05-05T08:41:04.011Z,94696.00
2023-05-05T08:42:04.019Z,94696.00
2023-05-05T08:43:03.996Z,94697.00
2023-05-05T08:44:03.971Z,94696.00
2023-05-05T08:45:04.004Z,94694.00
2023-05-05T08:46:03.990Z,94694.00
2023-05-05T08:47:04.228Z,94694.00
2023-05-05T08:48:04.103Z,94690.00
2023-05-05T08:49:04.156Z,94690.00
2023-05-05T08:50:04.177Z,94694.00
2023-05-05T08:51:05.498Z,94692.00
2023-05-05T08:52:04.271Z,94690.00
2023-05-05T08:53:04.428Z,94688.00
2023-05-05T08:54:04.653Z,94686.00
2023-05-05T08:55:04.443Z,94686.00
2023-05-05T08:56:04.492Z,94686.00
2023-05-05T08:57:04.483Z,94684.00
2023-05-05T08:58:04.560Z,94684.00
2023-05-05T08:59:04.679Z,94684.00
2023-05-05T09:00:04.653Z,94682.00
2023-05-05T09:01:04.749Z,94680.00
2023-05-05T09:02:04.794Z,94680.00
2023-05-05T09:03:05.053Z,94680.00
2023-05-05T09:04:04.947Z,94678.00
2023-05-05T09:05:05.250Z,94676.00
2023-05-05T09:06:05.040Z,94682.00
2023-05-05T09:07:05.088Z,94680.00
2023-05-05T09:08:05.170Z,94676.00
2023-05-05T09:09:05.224Z,94676.00
2023-05-05T09:10:05.283Z,94676.00
2023-05-05T09:11:05.324Z,94674.00
2023-05-05T09:12:05.459Z,94672.00
2023-05-05T09:13:05.570Z,94672.00
2023-05-05T09:14:05.560Z,94666.00
2023-05-05T09:15:05.737Z,94668.00
2023-05-05T09:16:05.623Z,94666.00
2023-05-05T09:17:05.762Z,94658.00
2023-05-05T09:18:05.761Z,94656.00
2023-05-05T09:19:05.811Z,94658.00
2023-05-05T09:20:05.868Z,94658.00
2023-05-05T09:21:05.935Z,94652.00
2023-05-05T09:22:05.983Z,94652.00
2023-05-05T09:23:06.049Z,94651.00
2023-05-05T09:24:08.488Z,94652.00
2023-05-05T09:25:06.370Z,94649.00
2023-05-05T09:26:06.077Z,94649.00
2023-05-05T09:27:06.099Z,94647.00
2023-05-05T09:28:06.470Z,94649.00
2023-05-05T09:29:06.059Z,94645.00
2023-05-05T09:30:06.052Z,94643.00
2023-05-05T09:31:06.080Z,94641.00
2023-05-05T09:32:06.086Z,94639.00
2023-05-05T09:33:06.268Z,94637.00
2023-05-05T09:34:06.021Z,94639.00
2023-05-05T09:35:06.118Z,94633.00
2023-05-05T09:36:06.017Z,94631.00
2023-05-05T09:37:06.185Z,94633.00
2023-05-05T09:38:06.181Z,94629.00
2023-05-05T09:39:06.024Z,94625.00
2023-05-05T09:40:05.998Z,94621.00
2023-05-05T09:41:05.977Z,94617.00
2023-05-05T09:42:05.987Z,94617.00
2023-05-05T09:43:05.982Z,94613.00
2023-05-05T09:44:06.032Z,94611.00
2023-05-05T09:45:06.034Z,94613.00
2023-05-05T09:46:05.979Z,94609.00
2023-05-05T09:47:15.038Z,94615.00
2023-05-05T09:48:07.004Z,94613.00
2023-05-05T09:49:05.921Z,94611.00
2023-05-05T09:50:06.056Z,94609.00
2023-05-05T09:51:05.890Z,94609.00
2023-05-05T09:52:05.904Z,94605.00
2023-05-05T09:53:05.877Z,94604.00
2023-05-05T09:54:05.924Z,94602.00
2023-05-05T09:55:05.884Z,94600.00
2023-05-05T09:56:05.897Z,94602.00
2023-05-05T09:57:06.022Z,94596.00
2023-05-05T09:58:05.991Z,94598.00
2023-05-05T09:59:06.050Z,94598.00
2023-05-05T10:00:06.237Z,94596.00
2023-05-05T10:01:06.217Z,94598.00
2023-05-05T10:02:06.163Z,94598.00
2023-05-05T10:03:06.248Z,94598.00
2023-05-05T10:04:06.206Z,94590.00
2023-05-05T10:05:06.763Z,94592.00
2023-05-05T10:06:06.198Z,94592.00
2023-05-05T10:07:06.192Z,94592.00
2023-05-05T10:08:06.233Z,94592.00
2023-05-05T10:09:06.296Z,94588.00
2023-05-05T10:10:06.463Z,94588.00
2023-05-05T10:11:06.298Z,94590.00
2023-05-05T10:12:06.291Z,94586.00
2023-05-05T10:13:06.341Z,94586.00
2023-05-05T10:14:06.330Z,94582.00
2023-05-05T10:15:06.397Z,94584.00
2023-05-05T10:16:06.560Z,94584.00
2023-05-05T10:17:06.516Z,94580.00
2023-05-05T10:18:08.221Z,94582.00
2023-05-05T10:19:06.572Z,94580.00
2023-05-05T10:20:06.887Z,94580.00
2023-05-05T10:21:06.713Z,94578.00
2023-05-05T10:22:06.698Z,94578.00
2023-05-05T10:23:06.719Z,94576.00
2023-05-05T10:24:06.775Z,94576.00
2023-05-05T10:25:06.842Z,94576.00
2023-05-05T10:26:06.862Z,94570.00
2023-05-05T10:27:07.002Z,94574.00
2023-05-05T10:28:07.013Z,94566.00
2023-05-05T10:29:07.230Z,94565.00
2023-05-05T10:30:07.418Z,94566.00
2023-05-05T10:31:16.487Z,94560.00
2023-05-05T10:32:24.386Z,94563.00
2023-05-05T10:33:22.870Z,94560.00
2023-05-05T10:35:07.134Z,94553.00
2023-05-05T10:36:07.185Z,94553.00
2023-05-05T10:37:07.145Z,94551.00
2023-05-05T10:38:07.114Z,94549.00
2023-05-05T10:39:07.158Z,94543.00
2023-05-05T10:40:07.526Z,94537.00
2023-05-05T10:41:07.112Z,94537.00
2023-05-05T10:42:07.095Z,94535.00
2023-05-05T10:43:07.119Z,94537.00
2023-05-05T10:44:07.086Z,94537.00
2023-05-05T10:45:07.082Z,94535.00
2023-05-05T10:46:07.163Z,94535.00
2023-05-05T10:47:07.067Z,94531.00
2023-05-05T10:48:07.183Z,94531.00
2023-05-05T10:49:07.073Z,94529.00
2023-05-05T10:50:07.287Z,94527.00
2023-05-05T10:51:07.042Z,94527.00
2023-05-05T10:52:07.019Z,94525.00
2023-05-05T10:53:07.012Z,94523.00
2023-05-05T10:54:07.066Z,94521.00
2023-05-05T10:55:07.025Z,94518.00
2023-05-05T10:56:06.996Z,94518.00
2023-05-05T10:57:07.002Z,94514.00
2023-05-05T10:58:07.006Z,94510.00
2023-05-05T10:59:07.004Z,94508.00
2023-05-05T11:00:07.057Z,94508.00
2023-05-05T11:01:06.998Z,94508.00
2023-05-05T11:02:06.964Z,94504.00
2023-05-05T11:03:07.035Z,94502.00
2023-05-05T11:04:07.088Z,94498.00
2023-05-05T11:05:06.964Z,94498.00
2023-05-05T11:06:06.942Z,94496.00
2023-05-05T11:07:06.931Z,94494.00
2023-05-05T11:08:06.922Z,94492.00
2023-05-05T11:09:06.962Z,94490.00
2023-05-05T11:10:07.452Z,94490.00
2023-05-05T11:11:06.902Z,94490.00
2023-05-05T11:12:06.902Z,94482.00
2023-05-05T11:13:06.930Z,94484.00
2023-05-05T11:14:06.877Z,94480.00
2023-05-05T11:15:07.225Z,94476.00
2023-05-05T11:16:06.900Z,94472.00
2023-05-05T11:17:06.918Z,94476.00
2023-05-05T11:18:07.866Z,94472.00
2023-05-05T11:19:06.842Z,94471.00
2023-05-05T11:20:07.405Z,94469.00
2023-05-05T11:21:06.824Z,94476.00
2023-05-05T11:22:06.941Z,94471.00
2023-05-05T11:23:06.969Z,94469.00
2023-05-05T11:24:06.840Z,94471.00
2023-05-05T11:25:06.886Z,94467.00
2023-05-05T11:26:06.913Z,94465.00
2023-05-05T11:27:06.964Z,94461.00
2023-05-05T11:28:07.012Z,94455.00
2023-05-05T11:29:07.138Z,94457.00
2023-05-05T11:30:07.436Z,94451.00
2023-05-05T11:31:07.175Z,94453.00
2023-05-05T11:32:07.190Z,94449.00
2023-05-05T11:33:07.400Z,94449.00
2023-05-05T11:34:07.290Z,94447.00
2023-05-05T11:35:07.342Z,94445.00
2023-05-05T11:36:07.694Z,94447.00
2023-05-05T11:37:07.468Z,94441.00
2023-05-05T11:38:07.491Z,94437.00
2023-05-05T11:39:07.573Z,94437.00
2023-05-05T11:40:07.785Z,94433.00
2023-05-05T11:41:07.692Z,94429.00
2023-05-05T11:42:10.747Z,94429.00
2023-05-05T11:43:07.733Z,94429.00
2023-05-05T11:44:07.734Z,94427.00
2023-05-05T11:45:07.738Z,94427.00
2023-05-05T11:46:07.718Z,94424.00